Time;durP1;ratioP1;P1;durP2;ratioP2;P2;SDS_P1;SDS_P2;PMS_P1;PMS_P2;Temp;Humidity;BMP_temperature;BMP_pressure;BME280_temperature;BME280_humidity;BME280_pressure;Samples;Min_cycle;Max_cycle;Signal;HPM_P1;HPM_P2
2023/04/09 00:01:10;;;;;;;8.50;7.50;;;19.00;58.00;;;;;;5055095;28;20490;-55
2023/04/09 00:03:37;;;;;;;10.38;7.20;;;19.00;58.00;;;;;;5057848;28;20485;-57
2023/04/09 00:06:04;;;;;;;9.68;7.97;;;19.00;58.00;;;;;;5058817;28;20279;-55
2023/04/09 00:08:30;;;;;;;8.55;7.70;;;19.00;57.90;;;;;;5058451;28;20025;-56
2023/04/09 00:10:57;;;;;;;10.25;8.02;;;19.00;57.90;;;;;;5059730;28;20032;-53
2023/04/09 00:13:22;;;;;;;8.75;7.78;;;19.00;57.90;;;;;;5058675;28;20032;-50
2023/04/09 00:15:48;;;;;;;9.40;8.23;;;18.90;57.80;;;;;;5060031;28;20147;-53
2023/04/09 00:18:15;;;;;;;9.45;7.88;;;18.90;57.80;;;;;;5062045;28;20024;-50
2023/04/09 00:20:41;;;;;;;9.93;7.82;;;19.00;57.70;;;;;;5058404;28;20100;-54
2023/04/09 00:23:06;;;;;;;9.68;7.72;;;19.00;57.70;;;;;;5060480;28;20670;-52
2023/04/09 00:25:32;;;;;;;8.77;7.60;;;18.90;57.70;;;;;;5056402;28;20153;-54
2023/04/09 00:27:57;;;;;;;11.02;8.55;;;18.90;57.70;;;;;;5056985;28;20276;-52
2023/04/09 00:30:23;;;;;;;9.65;8.00;;;18.90;57.70;;;;;;5057198;28;20029;-56
2023/04/09 00:32:49;;;;;;;9.23;7.35;;;18.90;57.60;;;;;;5060351;28;20041;-53
2023/04/09 00:35:16;;;;;;;8.85;7.90;;;18.90;57.60;;;;;;5062707;28;20037;-51
2023/04/09 00:37:42;;;;;;;8.13;6.93;;;18.90;57.60;;;;;;5061296;28;20037;-54
2023/04/09 00:40:07;;;;;;;10.48;7.80;;;18.90;57.60;;;;;;5059654;28;20032;-54
2023/04/09 00:42:35;;;;;;;9.63;7.93;;;18.90;57.50;;;;;;5058232;28;20412;-52
2023/04/09 00:45:01;;;;;;;10.25;8.48;;;18.90;57.50;;;;;;5059978;28;20123;-55
2023/04/09 00:47:29;;;;;;;10.02;7.80;;;18.90;57.40;;;;;;5060994;28;20108;-54
2023/04/09 00:49:55;;;;;;;8.65;7.72;;;18.90;57.40;;;;;;5056834;28;20441;-52
2023/04/09 00:52:21;;;;;;;8.68;6.78;;;18.90;57.40;;;;;;5058717;28;20032;-56
2023/04/09 00:54:51;;;;;;;8.60;7.28;;;18.90;57.30;;;;;;5052441;28;20042;-56
2023/04/09 00:57:17;;;;;;;10.57;8.20;;;18.90;57.30;;;;;;5058529;28;20040;-55
2023/04/09 00:59:43;;;;;;;10.57;8.60;;;18.80;57.20;;;;;;5058859;28;20545;-56
2023/04/09 01:02:09;;;;;;;8.23;7.30;;;18.90;57.80;;;;;;5062142;28;20182;-54
2023/04/09 01:04:36;;;;;;;10.40;7.72;;;18.80;57.10;;;;;;5055610;28;20025;-55
2023/04/09 01:07:33;;;;;;;8.38;7.57;;;18.90;57.20;;;;;;5059571;28;20039;-56
2023/04/09 01:10:24;;;;;;;10.27;7.90;;;18.90;57.20;;;;;;5056222;28;20040;-55
2023/04/09 01:13:15;;;;;;;7.85;7.05;;;18.90;57.10;;;;;;5061224;28;25952;-52
2023/04/09 01:15:47;;;;;;;8.68;7.78;;;18.80;56.90;;;;;;5059839;28;20036;-55
2023/04/09 01:18:29;;;;;;;8.43;7.47;;;18.90;56.90;;;;;;5060099;28;20170;-54
2023/04/09 01:21:13;;;;;;;8.48;7.57;;;18.80;56.90;;;;;;5058343;28;20033;-56
2023/04/09 01:23:46;;;;;;;9.57;7.93;;;18.90;56.90;;;;;;5055226;28;20033;-56
2023/04/09 01:26:30;;;;;;;12.00;7.97;;;18.80;56.90;;;;;;5055767;28;20024;-56
2023/04/09 01:28:56;;;;;;;8.27;7.38;;;18.90;56.80;;;;;;5059557;28;20043;-56
2023/04/09 01:31:30;;;;;;;8.20;7.35;;;18.90;56.80;;;;;;5057022;28;20033;-54
2023/04/09 01:33:56;;;;;;;8.43;7.15;;;18.90;56.80;;;;;;5056979;28;21965;-52
2023/04/09 01:36:25;;;;;;;9.10;7.82;;;18.80;56.70;;;;;;5057199;28;20040;-55
2023/04/09 01:38:51;;;;;;;9.65;7.68;;;18.80;56.70;;;;;;5062009;28;20057;-54
2023/04/09 01:41:20;;;;;;;8.30;7.43;;;18.80;56.70;;;;;;5056218;28;20029;-54
2023/04/09 01:43:48;;;;;;;8.25;7.45;;;18.80;56.70;;;;;;5063470;28;20382;-56
2023/04/09 01:46:15;;;;;;;9.15;8.25;;;18.80;56.70;;;;;;5060711;28;20027;-55
2023/04/09 01:48:42;;;;;;;9.52;7.40;;;18.80;56.60;;;;;;5057150;28;20040;-53
2023/04/09 01:51:08;;;;;;;7.80;7.00;;;18.80;56.60;;;;;;5057418;28;20063;-55
2023/04/09 01:53:33;;;;;;;7.88;7.07;;;18.80;56.50;;;;;;5049748;28;20024;-53
2023/04/09 01:56:00;;;;;;;9.65;7.07;;;18.80;56.50;;;;;;5059389;28;20066;-52
2023/04/09 01:58:26;;;;;;;9.02;7.38;;;18.80;56.50;;;;;;5061761;28;20033;-54
2023/04/09 02:01:11;;;;;;;10.02;7.82;;;18.80;56.50;;;;;;5059163;28;20028;-53
2023/04/09 02:03:49;;;;;;;8.27;7.38;;;18.80;56.50;;;;;;5058297;28;20048;-54
2023/04/09 02:06:33;;;;;;;8.50;7.60;;;18.70;56.50;;;;;;5058860;28;20028;-54
2023/04/09 02:09:01;;;;;;;11.05;7.25;;;18.70;56.50;;;;;;5057890;28;20264;-54
2023/04/09 02:11:30;;;;;;;8.73;7.75;;;18.70;56.50;;;;;;5056481;28;20409;-53
2023/04/09 02:13:57;;;;;;;8.73;7.82;;;18.70;56.50;;;;;;5056629;28;20087;-54
2023/04/09 02:16:24;;;;;;;7.80;7.00;;;18.70;56.50;;;;;;5052796;28;20033;-55
2023/04/09 02:18:55;;;;;;;9.05;7.03;;;18.70;56.50;;;;;;5057607;28;20142;-53
2023/04/09 02:21:22;;;;;;;8.48;6.90;;;18.70;56.50;;;;;;5054253;28;20047;-55
2023/04/09 02:23:47;;;;;;;9.52;6.88;;;18.60;57.10;;;;;;5050067;28;20107;-56
2023/04/09 02:26:13;;;;;;;8.18;6.85;;;18.60;56.40;;;;;;5058012;28;20033;-56
2023/04/09 02:28:38;;;;;;;7.80;6.97;;;18.60;56.40;;;;;;5060949;28;20028;-54
2023/04/09 02:31:04;;;;;;;7.78;6.85;;;18.60;56.50;;;;;;5059183;28;20028;-55
2023/04/09 02:33:29;;;;;;;8.77;7.07;;;18.60;56.50;;;;;;5059238;28;20024;-51
2023/04/09 02:35:55;;;;;;;8.57;7.10;;;18.60;56.50;;;;;;5056132;28;20446;-54
2023/04/09 02:38:20;;;;;;;7.68;6.60;;;18.60;57.10;;;;;;5058021;28;20054;-53
2023/04/09 02:40:46;;;;;;;9.18;6.95;;;18.50;56.50;;;;;;5057634;28;20116;-53
2023/04/09 02:43:11;;;;;;;7.80;6.72;;;18.50;56.40;;;;;;5056503;28;20449;-54
2023/04/09 02:45:37;;;;;;;7.25;6.22;;;18.60;56.50;;;;;;5053620;28;20103;-55
2023/04/09 02:48:03;;;;;;;8.38;7.15;;;18.50;56.40;;;;;;5053061;28;20517;-54
2023/04/09 02:50:28;;;;;;;7.00;6.30;;;18.60;56.40;;;;;;5056942;28;20036;-56
2023/04/09 02:52:53;;;;;;;7.47;6.68;;;18.50;56.40;;;;;;5049656;28;20025;-53
2023/04/09 02:55:20;;;;;;;7.50;6.43;;;18.50;56.40;;;;;;5061916;28;20453;-55
2023/04/09 02:57:45;;;;;;;7.70;6.90;;;18.50;56.40;;;;;;5059350;28;20059;-55
2023/04/09 03:00:11;;;;;;;7.63;6.50;;;18.50;56.40;;;;;;5059800;28;20051;-53
2023/04/09 03:02:37;;;;;;;7.80;7.00;;;18.60;56.40;;;;;;5054572;28;20063;-53
2023/04/09 03:05:03;;;;;;;8.65;7.45;;;18.60;56.10;;;;;;5054526;28;20060;-53
2023/04/09 03:07:28;;;;;;;7.72;6.88;;;18.70;55.80;;;;;;5055219;28;20037;-55
2023/04/09 03:09:54;;;;;;;7.03;6.32;;;18.90;55.50;;;;;;5058889;28;20044;-54
2023/04/09 03:12:19;;;;;;;7.05;6.35;;;19.10;55.20;;;;;;5054634;28;20037;-52
2023/04/09 03:14:45;;;;;;;7.07;6.35;;;19.20;54.90;;;;;;5057823;28;20045;-52
2023/04/09 03:17:10;;;;;;;6.85;5.85;;;19.20;54.60;;;;;;5052334;28;20424;-56
2023/04/09 03:19:36;;;;;;;6.60;5.63;;;19.30;54.50;;;;;;5054620;28;20123;-56
2023/04/09 03:22:01;;;;;;;6.80;6.10;;;19.40;54.10;;;;;;5045634;28;20640;-57
2023/04/09 03:24:27;;;;;;;6.53;5.63;;;19.50;54.00;;;;;;5067316;28;20106;-54
2023/04/09 03:26:52;;;;;;;6.90;5.82;;;19.60;53.80;;;;;;5052801;28;20067;-53
2023/04/09 03:29:18;;;;;;;7.53;6.07;;;19.70;53.60;;;;;;5059457;28;20041;-54
2023/04/09 03:31:43;;;;;;;6.97;5.90;;;19.70;53.30;;;;;;5054513;28;20120;-54
2023/04/09 03:34:09;;;;;;;6.50;5.40;;;19.80;53.00;;;;;;5058518;28;20447;-56
2023/04/09 03:36:34;;;;;;;6.50;5.85;;;19.90;53.00;;;;;;5055144;28;20060;-55
2023/04/09 03:39:00;;;;;;;5.97;5.38;;;19.90;53.00;;;;;;5060943;28;20275;-54
2023/04/09 03:41:26;;;;;;;6.50;5.80;;;19.90;53.00;;;;;;5060093;28;20495;-53
2023/04/09 03:43:52;;;;;;;6.78;6.07;;;19.90;53.10;;;;;;5056665;28;20501;-54
2023/04/09 03:46:18;;;;;;;5.88;5.28;;;19.90;53.10;;;;;;5055118;28;20071;-54
2023/04/09 03:48:44;;;;;;;6.40;5.60;;;19.90;53.10;;;;;;5058455;28;20644;-56
2023/04/09 03:51:16;;;;;;;7.25;6.25;;;19.90;53.20;;;;;;5061000;28;20366;-54
2023/04/09 03:53:42;;;;;;;5.97;5.38;;;19.80;53.30;;;;;;5058493;28;20116;-55
2023/04/09 03:56:09;;;;;;;5.82;5.32;;;19.80;53.50;;;;;;5063132;28;20389;-56
2023/04/09 03:58:35;;;;;;;6.88;6.05;;;19.70;53.60;;;;;;5060507;28;20098;-56
2023/04/09 04:01:02;;;;;;;6.35;5.75;;;19.70;53.50;;;;;;5061064;28;20111;-53
2023/04/09 04:03:28;;;;;;;7.20;5.63;;;19.70;53.60;;;;;;5055275;28;20063;-54
2023/04/09 04:05:58;;;;;;;6.72;5.97;;;19.60;53.60;;;;;;5061784;28;20032;-54
2023/04/09 04:08:23;;;;;;;6.50;5.80;;;19.60;53.60;;;;;;5058915;28;20086;-52
2023/04/09 04:10:49;;;;;;;6.22;5.60;;;19.60;53.80;;;;;;5063649;28;20023;-53
2023/04/09 04:13:14;;;;;;;6.65;5.70;;;19.60;53.90;;;;;;5055379;28;20032;-54
2023/04/09 04:15:41;;;;;;;7.10;5.93;;;19.60;54.00;;;;;;5060433;28;20037;-53
2023/04/09 04:18:06;;;;;;;6.57;5.75;;;19.50;53.90;;;;;;5054851;28;20117;-55
2023/04/09 04:20:32;;;;;;;6.88;6.10;;;19.50;54.00;;;;;;5055465;28;20142;-56
2023/04/09 04:22:58;;;;;;;6.55;5.88;;;19.50;54.00;;;;;;5059462;28;20394;-53
2023/04/09 04:25:24;;;;;;;6.53;5.88;;;19.40;54.10;;;;;;5063729;28;20177;-54
2023/04/09 04:27:49;;;;;;;6.75;5.95;;;19.40;54.80;;;;;;5057634;28;20029;-54
2023/04/09 04:30:15;;;;;;;6.53;5.55;;;19.40;54.40;;;;;;5060500;28;20055;-56
2023/04/09 04:32:40;;;;;;;6.53;5.72;;;19.40;54.40;;;;;;5056014;28;20036;-55
2023/04/09 04:35:06;;;;;;;6.65;5.97;;;19.30;54.30;;;;;;5056291;28;20124;-53
2023/04/09 04:37:32;;;;;;;6.53;5.75;;;19.30;54.20;;;;;;5056956;28;20128;-59
2023/04/09 04:39:59;;;;;;;6.95;6.00;;;19.30;54.30;;;;;;5057169;28;20029;-55
2023/04/09 04:42:25;;;;;;;7.20;6.35;;;19.20;54.20;;;;;;5055909;28;20029;-55
2023/04/09 04:44:50;;;;;;;7.78;6.28;;;19.20;54.10;;;;;;5053173;28;20036;-54
2023/04/09 04:47:16;;;;;;;5.72;5.13;;;19.20;54.20;;;;;;5055977;28;20037;-53
2023/04/09 04:49:41;;;;;;;6.82;5.75;;;19.20;54.10;;;;;;5050860;28;20033;-55
2023/04/09 04:52:07;;;;;;;5.88;5.28;;;19.10;54.10;;;;;;5057940;28;20025;-51
2023/04/09 04:54:33;;;;;;;6.50;5.82;;;19.10;54.20;;;;;;5060590;28;20509;-56
2023/04/09 04:56:58;;;;;;;6.03;5.43;;;19.10;54.20;;;;;;5060306;28;20025;-53
2023/04/09 04:59:24;;;;;;;8.95;6.07;;;19.00;54.30;;;;;;5058148;28;20059;-51
2023/04/09 05:01:49;;;;;;;7.22;6.20;;;19.00;54.30;;;;;;5056056;28;20406;-52
2023/04/09 05:04:15;;;;;;;6.55;5.95;;;19.00;54.30;;;;;;5058706;28;20138;-54
2023/04/09 05:06:40;;;;;;;5.57;5.03;;;19.00;54.40;;;;;;5056132;28;20399;-54
2023/04/09 05:09:06;;;;;;;6.38;5.78;;;18.90;54.40;;;;;;5053916;28;20028;-54
2023/04/09 05:11:31;;;;;;;5.95;5.35;;;18.90;54.30;;;;;;5057847;28;20688;-58
2023/04/09 05:13:57;;;;;;;6.82;5.95;;;18.90;54.40;;;;;;5052183;28;20044;-56
2023/04/09 05:16:22;;;;;;;6.22;5.30;;;18.90;54.30;;;;;;5059017;28;20807;-50
2023/04/09 05:18:48;;;;;;;6.63;5.88;;;18.90;54.30;;;;;;5051689;28;20033;-51
2023/04/09 05:21:13;;;;;;;5.82;5.28;;;18.80;54.30;;;;;;5056916;28;20021;-55
2023/04/09 05:23:39;;;;;;;6.85;5.68;;;18.80;54.30;;;;;;5058401;28;20712;-48
2023/04/09 05:26:04;;;;;;;8.07;5.82;;;18.80;54.40;;;;;;5057260;28;20101;-50
2023/04/09 05:28:30;;;;;;;7.68;5.90;;;18.80;54.40;;;;;;5059093;28;20082;-51
2023/04/09 05:30:55;;;;;;;6.75;6.05;;;18.80;54.40;;;;;;5059122;28;20036;-55
2023/04/09 05:33:21;;;;;;;7.22;6.13;;;18.70;54.50;;;;;;5054808;28;20024;-55
2023/04/09 05:35:46;;;;;;;6.72;6.03;;;18.70;54.50;;;;;;5055319;28;20098;-52
2023/04/09 05:38:15;;;;;;;6.55;5.75;;;18.70;54.50;;;;;;5053904;28;20028;-54
2023/04/09 05:40:41;;;;;;;9.02;6.38;;;18.70;54.60;;;;;;5047445;28;20178;-52
2023/04/09 05:43:07;;;;;;;6.65;5.93;;;18.70;54.60;;;;;;5052248;28;20064;-51
2023/04/09 05:45:32;;;;;;;6.05;5.38;;;18.60;55.10;;;;;;5054642;28;20048;-52
2023/04/09 05:47:58;;;;;;;7.13;5.80;;;18.70;54.60;;;;;;5054990;28;20025;-55
2023/04/09 05:50:23;;;;;;;7.18;6.47;;;18.70;54.60;;;;;;5051033;28;20028;-50
2023/04/09 05:52:49;;;;;;;7.32;5.90;;;18.60;54.50;;;;;;5057508;28;20552;-54
2023/04/09 05:55:14;;;;;;;6.80;6.10;;;18.70;54.70;;;;;;5058509;28;20094;-55
2023/04/09 05:57:40;;;;;;;9.77;6.85;;;18.80;54.50;;;;;;5060163;28;20225;-54
2023/04/09 06:00:07;;;;;;;6.97;5.95;;;18.90;54.30;;;;;;5051621;28;20025;-53
2023/04/09 06:02:32;;;;;;;6.88;6.05;;;19.10;54.00;;;;;;5052281;28;20024;-49
2023/04/09 06:04:58;;;;;;;8.90;6.40;;;19.20;53.80;;;;;;5054163;28;20183;-51
2023/04/09 06:07:23;;;;;;;8.07;5.80;;;19.30;53.70;;;;;;5057223;28;20093;-51
2023/04/09 06:09:49;;;;;;;7.60;5.93;;;19.40;53.80;;;;;;5053218;28;20128;-54
2023/04/09 06:12:15;;;;;;;8.30;5.90;;;19.60;53.60;;;;;;5057848;28;20032;-54
2023/04/09 06:14:40;;;;;;;8.75;7.07;;;19.80;53.30;;;;;;5047915;22;20060;-53
2023/04/09 06:17:06;;;;;;;9.23;7.53;;;19.80;53.20;;;;;;5035474;28;20032;-52
2023/04/09 06:19:31;;;;;;;11.63;8.63;;;19.90;53.10;;;;;;5039015;28;20032;-53
2023/04/09 06:21:57;;;;;;;12.85;9.07;;;20.00;53.10;;;;;;5035801;28;20047;-54
2023/04/09 06:24:22;;;;;;;14.05;9.32;;;20.10;53.10;;;;;;5036386;28;20464;-51
2023/04/09 06:26:48;;;;;;;12.23;9.30;;;20.10;53.00;;;;;;5037309;28;20112;-56
2023/04/09 06:29:14;;;;;;;13.55;9.77;;;20.10;53.00;;;;;;5040152;28;20029;-57
2023/04/09 06:31:39;;;;;;;15.18;9.52;;;20.10;53.10;;;;;;5039511;28;20033;-49
2023/04/09 06:34:05;;;;;;;14.63;9.88;;;20.10;53.10;;;;;;5034498;28;20636;-55
2023/04/09 06:36:31;;;;;;;14.63;9.27;;;20.10;53.40;;;;;;5032812;28;20037;-49
2023/04/09 06:38:57;;;;;;;11.73;8.63;;;20.00;53.50;;;;;;5034485;28;20041;-50
2023/04/09 06:41:23;;;;;;;16.13;9.55;;;20.00;53.60;;;;;;5035590;28;20033;-51
2023/04/09 06:43:49;;;;;;;14.27;9.02;;;20.00;53.70;;;;;;5048670;22;20119;-49
2023/04/09 06:46:16;;;;;;;13.60;9.18;;;19.90;53.80;;;;;;5031956;28;20064;-53
2023/04/09 06:48:43;;;;;;;13.65;8.80;;;19.80;53.60;;;;;;5035365;28;20044;-52
2023/04/09 06:51:10;;;;;;;13.00;9.40;;;19.80;53.80;;;;;;5035520;28;20095;-49
2023/04/09 06:53:36;;;;;;;11.52;8.40;;;19.80;54.00;;;;;;5038152;28;20037;-54
2023/04/09 06:56:02;;;;;;;11.48;9.15;;;19.80;54.10;;;;;;5035783;28;20029;-51
2023/04/09 06:58:27;;;;;;;14.32;8.95;;;19.70;54.20;;;;;;5037003;28;20397;-50
2023/04/09 07:00:53;;;;;;;11.77;8.98;;;19.70;54.10;;;;;;5034593;28;20037;-50
2023/04/09 07:03:18;;;;;;;15.93;9.23;;;19.60;54.30;;;;;;5036514;28;20107;-52
2023/04/09 07:05:44;;;;;;;12.40;8.10;;;19.60;54.40;;;;;;5034547;28;20119;-50
2023/04/09 07:08:10;;;;;;;13.57;9.45;;;19.60;54.40;;;;;;5032517;28;20029;-49
2023/04/09 07:10:36;;;;;;;10.93;8.27;;;19.60;54.40;;;;;;5032732;28;20025;-51
2023/04/09 07:13:02;;;;;;;13.23;9.60;;;19.60;54.40;;;;;;5038576;28;20108;-50
2023/04/09 07:15:27;;;;;;;14.07;9.77;;;19.50;54.30;;;;;;5032123;28;20025;-51
2023/04/09 07:17:53;;;;;;;16.08;9.27;;;19.50;54.60;;;;;;5035328;28;20059;-51
2023/04/09 07:20:18;;;;;;;15.48;11.05;;;19.50;54.60;;;;;;5054463;28;20028;-50
2023/04/09 07:22:44;;;;;;;19.98;12.55;;;19.50;54.70;;;;;;5038069;28;20041;-52
2023/04/09 07:25:09;;;;;;;23.63;14.23;;;19.50;55.00;;;;;;5037692;28;20105;-52
2023/04/09 07:27:35;;;;;;;26.63;13.85;;;19.50;55.20;;;;;;5042817;28;20145;-51
2023/04/09 07:30:00;;;;;;;24.50;12.50;;;19.40;55.30;;;;;;5037763;28;20033;-51
2023/04/09 07:32:29;;;;;;;21.77;13.57;;;19.50;55.50;;;;;;5034035;28;20533;-51
2023/04/09 07:34:56;;;;;;;24.35;13.63;;;19.40;55.50;;;;;;5032384;28;20029;-50
2023/04/09 07:37:21;;;;;;;21.13;12.55;;;19.40;55.70;;;;;;5033554;28;20033;-51
2023/04/09 07:39:48;;;;;;;23.45;13.02;;;19.40;56.60;;;;;;5037181;28;20037;-50
2023/04/09 07:42:13;;;;;;;24.02;12.63;;;19.40;57.00;;;;;;5033464;28;20068;-50
2023/04/09 07:44:39;;;;;;;18.92;12.75;;;19.40;56.90;;;;;;5037480;28;20079;-50
2023/04/09 07:47:06;;;;;;;22.63;11.98;;;19.40;56.80;;;;;;5036798;28;20612;-49
2023/04/09 07:49:34;;;;;;;24.70;13.07;;;19.40;57.00;;;;;;5038037;28;20090;-47
2023/04/09 07:51:59;;;;;;;21.13;12.30;;;19.40;57.00;;;;;;5035047;28;20022;-48
2023/04/09 07:54:25;;;;;;;16.67;10.38;;;19.40;57.20;;;;;;5037284;28;20040;-48
2023/04/09 07:56:51;;;;;;;24.95;10.57;;;19.30;58.00;;;;;;5036832;28;20099;-48
2023/04/09 07:59:16;;;;;;;20.25;11.98;;;19.30;58.60;;;;;;5035251;28;20502;-49
2023/04/09 08:01:42;;;;;;;21.25;12.00;;;19.30;59.00;;;;;;5033213;28;20363;-48
2023/04/09 08:04:09;;;;;;;22.90;11.55;;;19.30;59.90;;;;;;5031694;28;20097;-49
2023/04/09 08:06:35;;;;;;;19.15;11.30;;;19.20;59.80;;;;;;5031762;28;20034;-49
2023/04/09 08:09:01;;;;;;;23.17;10.65;;;19.20;60.70;;;;;;5034527;28;20166;-49
2023/04/09 08:11:26;;;;;;;23.17;11.45;;;19.20;59.80;;;;;;5034560;28;20109;-48
2023/04/09 08:13:52;;;;;;;26.65;12.27;;;19.30;60.10;;;;;;5034383;28;20028;-49
2023/04/09 08:16:20;;;;;;;27.77;13.43;;;19.30;60.10;;;;;;5035227;28;20021;-47
2023/04/09 08:18:46;;;;;;;24.77;14.55;;;19.40;61.30;;;;;;5037288;28;20045;-47
2023/04/09 08:21:11;;;;;;;25.10;13.30;;;19.40;61.80;;;;;;5035823;28;20387;-48
2023/04/09 08:23:37;;;;;;;21.05;12.30;;;19.40;61.40;;;;;;5035161;28;20139;-48
2023/04/09 08:26:03;;;;;;;29.85;12.73;;;19.40;61.70;;;;;;5039603;28;20031;-46
2023/04/09 08:28:28;;;;;;;32.58;13.85;;;19.40;62.00;;;;;;5040147;28;20035;-49
2023/04/09 08:30:54;;;;;;;31.92;15.68;;;19.40;62.70;;;;;;5039892;28;20045;-47
2023/04/09 08:33:19;;;;;;;24.98;14.10;;;19.40;62.90;;;;;;5037347;28;20094;-48
2023/04/09 08:35:45;;;;;;;34.20;16.30;;;19.40;64.80;;;;;;5036394;28;20437;-46
2023/04/09 08:38:11;;;;;;;37.15;21.25;;;19.40;63.90;;;;;;5035761;28;20060;-46
2023/04/09 08:40:36;;;;;;;38.08;26.30;;;19.40;65.40;;;;;;5031756;28;20044;-48
2023/04/09 08:43:06;;;;;;;50.88;35.80;;;19.40;65.50;;;;;;5039618;28;20037;-47
2023/04/09 08:45:31;;;;;;;48.72;34.45;;;19.50;67.90;;;;;;5032213;28;20035;-50
2023/04/09 08:47:58;;;;;;;54.17;34.95;;;19.50;67.30;;;;;;5031674;28;20063;-47
2023/04/09 08:50:32;;;;;;;50.60;32.67;;;19.50;67.20;;;;;;5041274;28;20029;-48
2023/04/09 08:53:07;;;;;;;49.40;31.95;;;19.50;67.90;;;;;;5038448;28;20390;-49
2023/04/09 08:55:39;;;;;;;38.85;28.45;;;19.50;67.30;;;;;;5036846;28;20021;-48
2023/04/09 08:58:09;;;;;;;36.15;28.10;;;19.50;67.70;;;;;;5035617;28;20041;-47
2023/04/09 09:00:35;;;;;;;36.70;27.67;;;19.50;66.50;;;;;;5036472;28;20029;-56
2023/04/09 09:03:14;;;;;;;40.38;25.30;;;19.50;67.40;;;;;;5032911;28;20479;-47
2023/04/09 09:05:42;;;;;;;29.55;23.08;;;19.50;66.40;;;;;;5038480;28;20033;-48
2023/04/09 09:08:09;;;;;;;32.17;23.63;;;19.40;66.40;;;;;;5031513;28;20670;-47
2023/04/09 09:10:40;;;;;;;31.10;22.02;;;19.40;65.40;;;;;;5038773;28;20045;-47
2023/04/09 09:13:23;;;;;;;28.55;20.60;;;19.40;65.00;;;;;;5040246;28;20049;-47
2023/04/09 09:15:54;;;;;;;25.65;19.95;;;19.40;65.00;;;;;;5037632;28;20501;-47
2023/04/09 09:18:20;;;;;;;24.45;19.45;;;19.40;64.90;;;;;;5037965;28;20517;-46
2023/04/09 09:20:46;;;;;;;30.83;20.10;;;19.40;64.50;;;;;;5041101;28;20123;-48
2023/04/09 09:23:12;;;;;;;22.00;18.30;;;19.40;65.20;;;;;;5041867;28;20136;-48
2023/04/09 09:25:38;;;;;;;29.88;18.73;;;19.40;65.10;;;;;;5041724;28;20164;-47
2023/04/09 09:28:09;;;;;;;38.78;22.08;;;19.40;65.20;;;;;;5036166;28;20074;-48
2023/04/09 09:30:36;;;;;;;29.98;19.80;;;19.50;65.50;;;;;;5025420;28;20036;-48
2023/04/09 09:33:11;;;;;;;28.77;20.05;;;19.40;65.70;;;;;;5035135;28;20051;-47
2023/04/09 09:35:47;;;;;;;;;;;19.50;65.30;;;;;;5033666;28;20494;-48
2023/04/09 09:38:14;;;;;;;;;;;19.50;65.40;;;;;;5030627;28;20020;-48
2023/04/09 09:40:40;;;;;;;24.77;18.77;;;19.50;64.60;;;;;;5042781;28;19920;-50
2023/04/09 09:43:06;;;;;;;23.33;18.30;;;19.60;64.10;;;;;;5039128;28;20531;-54
2023/04/09 09:45:32;;;;;;;22.73;17.85;;;19.60;63.90;;;;;;5039001;28;20033;-46
2023/04/09 09:47:58;;;;;;;27.40;17.83;;;19.60;63.50;;;;;;5035878;28;20040;-46
2023/04/09 09:50:25;;;;;;;24.60;17.58;;;19.60;63.40;;;;;;5041451;28;20025;-47
2023/04/09 09:52:59;;;;;;;22.98;16.58;;;19.60;63.80;;;;;;5039895;28;20033;-49
2023/04/09 09:55:28;;;;;;;22.58;16.13;;;19.70;63.50;;;;;;5033029;28;20049;-51
2023/04/09 09:57:55;;;;;;;25.75;15.43;;;19.80;63.60;;;;;;5033606;28;20037;-48
2023/04/09 10:00:24;;;;;;;23.27;16.60;;;19.80;63.70;;;;;;5033230;28;20502;-47
2023/04/09 10:02:56;;;;;;;22.30;15.63;;;19.80;63.60;;;;;;5033613;28;20053;-49
2023/04/09 10:05:25;;;;;;;23.35;15.98;;;19.80;64.10;;;;;;5033594;28;20040;-50
2023/04/09 10:07:56;;;;;;;20.83;16.23;;;19.80;64.80;;;;;;5038157;28;20029;-47
2023/04/09 10:10:23;;;;;;;27.70;17.60;;;19.90;65.80;;;;;;5040638;28;20028;-50
2023/04/09 10:12:49;;;;;;;30.90;17.85;;;19.90;65.60;;;;;;5039903;28;20040;-48
2023/04/09 10:15:15;;;;;;;31.80;17.05;;;19.90;65.60;;;;;;5036452;28;20089;-49
2023/04/09 10:17:41;;;;;;;24.60;17.52;;;19.90;65.60;;;;;;5022894;28;20115;-49
2023/04/09 10:20:11;;;;;;;29.38;19.38;;;19.90;67.10;;;;;;5040346;28;20025;-52
2023/04/09 10:22:38;;;;;;;29.85;19.77;;;19.90;67.90;;;;;;5038413;28;20028;-54
2023/04/09 10:25:05;;;;;;;27.83;20.13;;;20.00;67.70;;;;;;5035202;28;20029;-48
2023/04/09 10:27:31;;;;;;;27.92;19.13;;;20.00;67.70;;;;;;5034200;28;20367;-49
2023/04/09 10:29:58;;;;;;;29.80;19.15;;;20.00;67.50;;;;;;5034466;28;20756;-50
2023/04/09 10:32:26;;;;;;;29.55;20.90;;;20.00;68.50;;;;;;5034789;28;20089;-48
2023/04/09 10:34:56;;;;;;;28.25;19.67;;;20.00;68.90;;;;;;5032083;28;20087;-50
2023/04/09 10:37:24;;;;;;;31.20;19.20;;;20.00;70.00;;;;;;5037179;28;20056;-47
2023/04/09 10:39:51;;;;;;;30.63;19.13;;;20.00;70.40;;;;;;5037897;28;20033;-49
2023/04/09 10:42:28;;;;;;;31.85;18.17;;;20.00;69.80;;;;;;5038574;28;20467;-50
2023/04/09 10:45:05;;;;;;;37.72;20.98;;;20.00;68.80;;;;;;5036098;28;20131;-49
2023/04/09 10:47:34;;;;;;;38.15;21.63;;;20.00;68.40;;;;;;5036152;28;20549;-49
2023/04/09 10:50:21;;;;;;;29.40;19.80;;;19.90;67.80;;;;;;5037736;28;20037;-50
2023/04/09 10:52:51;;;;;;;28.90;18.88;;;19.90;67.30;;;;;;5035428;28;20715;-48
2023/04/09 10:55:40;;;;;;;34.92;18.17;;;19.90;67.00;;;;;;5036743;28;20029;-49
2023/04/09 10:58:10;;;;;;;37.40;19.52;;;19.90;66.70;;;;;;5034101;28;20033;-52
2023/04/09 11:00:40;;;;;;;39.35;17.30;;;19.90;67.00;;;;;;5033916;28;20094;-53
2023/04/09 11:03:23;;;;;;;33.10;17.65;;;19.90;67.20;;;;;;5030547;28;20037;-49
2023/04/09 11:06:08;;;;;;;36.80;16.23;;;19.80;67.60;;;;;;5038091;28;20083;-51
2023/04/09 11:08:34;;;;;;;23.23;14.80;;;19.80;67.40;;;;;;5039235;28;20025;-50
2023/04/09 11:11:00;;;;;;;27.15;16.40;;;19.80;67.30;;;;;;5038338;28;20040;-48
2023/04/09 11:13:27;;;;;;;28.15;14.00;;;19.80;66.90;;;;;;5039901;28;20721;-49
2023/04/09 11:15:54;;;;;;;34.08;15.35;;;19.80;66.80;;;;;;5036729;28;20102;-50
2023/04/09 11:18:22;;;;;;;35.65;14.80;;;19.80;66.90;;;;;;5039067;28;20036;-51
2023/04/09 11:20:48;;;;;;;30.13;13.68;;;19.80;67.20;;;;;;5035388;28;20109;-50
2023/04/09 11:23:15;;;;;;;29.42;15.00;;;19.80;67.80;;;;;;5032529;28;20740;-50
2023/04/09 11:25:40;;;;;;;28.88;13.52;;;19.80;67.80;;;;;;5033999;28;20069;-50
2023/04/09 11:28:07;;;;;;;40.50;12.98;;;19.80;67.70;;;;;;5028641;28;20071;-48
2023/04/09 11:30:33;;;;;;;33.15;13.45;;;19.80;67.90;;;;;;5032962;28;20515;-49
2023/04/09 11:32:59;;;;;;;41.00;14.23;;;19.80;67.70;;;;;;5034133;28;20236;-50
2023/04/09 11:35:25;;;;;;;43.50;14.38;;;19.80;68.00;;;;;;5036073;28;20611;-50
2023/04/09 11:37:51;;;;;;;34.13;12.88;;;19.80;68.00;;;;;;5036168;28;20041;-50
2023/04/09 11:40:25;;;;;;;38.78;13.98;;;19.90;68.40;;;;;;5036166;28;20029;-51
2023/04/09 11:42:53;;;;;;;30.42;12.13;;;19.80;68.10;;;;;;5035635;28;20044;-58
2023/04/09 11:45:21;;;;;;;38.08;13.05;;;19.90;68.40;;;;;;5021707;28;20037;-51
2023/04/09 11:47:47;;;;;;;54.17;23.45;;;19.80;68.40;;;;;;5035960;28;20040;-49
2023/04/09 11:50:15;;;;;;;62.72;23.55;;;19.90;68.20;;;;;;5038886;28;20411;-48
2023/04/09 11:52:41;;;;;;;47.90;23.13;;;19.80;68.00;;;;;;5035242;28;24811;-51
2023/04/09 11:55:10;;;;;;;52.50;21.88;;;19.80;67.70;;;;;;5031473;28;20495;-49
2023/04/09 11:57:44;;;;;;;51.40;21.52;;;19.80;67.30;;;;;;5033025;28;20045;-50
2023/04/09 12:00:11;;;;;;;44.72;20.65;;;19.80;66.80;;;;;;5033747;28;20034;-51
2023/04/09 12:02:39;;;;;;;42.80;19.05;;;19.70;66.60;;;;;;5041293;28;20044;-50
2023/04/09 12:05:05;;;;;;;39.10;19.10;;;19.70;65.20;;;;;;5040693;28;20025;-51
2023/04/09 12:07:34;;;;;;;29.02;16.52;;;19.70;64.00;;;;;;5040388;28;20033;-49
2023/04/09 12:10:05;;;;;;;33.00;16.33;;;19.70;63.20;;;;;;5040604;28;20025;-49
2023/04/09 12:12:30;;;;;;;30.17;16.13;;;19.60;62.90;;;;;;5039465;28;20122;-48
2023/04/09 12:14:58;;;;;;;25.70;15.20;;;19.60;62.70;;;;;;5038581;28;20067;-50
2023/04/09 12:17:23;;;;;;;23.23;13.80;;;19.60;62.50;;;;;;5041649;28;20037;-48
2023/04/09 12:19:49;;;;;;;23.33;13.75;;;19.60;61.90;;;;;;5041779;28;20040;-48
2023/04/09 12:22:14;;;;;;;24.08;14.02;;;19.60;61.70;;;;;;5032074;28;20101;-52
2023/04/09 12:24:40;;;;;;;20.85;13.63;;;19.60;61.60;;;;;;5036860;28;20049;-50
2023/04/09 12:27:05;;;;;;;22.48;13.25;;;19.50;61.20;;;;;;5036915;28;20262;-49
2023/04/09 12:29:32;;;;;;;22.00;12.88;;;19.50;60.80;;;;;;5037426;28;20025;-51
2023/04/09 12:31:57;;;;;;;18.92;11.80;;;19.50;60.70;;;;;;5042770;28;20021;-50
2023/04/09 12:34:23;;;;;;;17.88;12.10;;;19.50;60.70;;;;;;5039354;28;20367;-48
2023/04/09 12:36:49;;;;;;;16.60;11.85;;;19.40;60.30;;;;;;5039966;28;20102;-49
2023/04/09 12:39:14;;;;;;;15.55;11.73;;;19.50;60.00;;;;;;5043676;28;20093;-52